West Lake Hills, TX

3:48 AM CDT on September 25, 2016 (GMT -0500)
Camelot | | Change Station

Elev 925 ft 30.29 °N, 97.83 °W | Updated 4 seconds ago

Overcast
Overcast
75.6 °F
Feels Like 75 °F
N
0.0
Wind Variable Wind from SSE
Gusts 0.0 mph

Today
High -- | Low -- °F
--% Chance of Precip.
Yesterday
High -- | Low -- °F
Precip. -- in
Pressure 29.92 in
Visibility 10.0 miles
Clouds Overcast 800 ft
Heat Index 75 °F
Dew Point 74 °F
Humidity 94%
Rainfall 0.00 in
Snow Depth Not available.
7:21 AM 7:23 PM
Waning Crescent, 29% visible
METAR KATT 250751Z AUTO 11004KT 10SM OVC008 25/23 A2996 RMK AO2 SLP131 T02500233
Pressure 29.92 in
Visibility 10.0 miles
Clouds Overcast 800 ft
Heat Index 75 °F
Dew Point 74 °F
Humidity 94%
Rainfall 0.00 in
Snow Depth Not available.
7:21 AM 7:23 PM
Waning Crescent, 29% visible
METAR KATT 250751Z AUTO 11004KT 10SM OVC008 25/23 A2996 RMK AO2 SLP131 T02500233

10-Day Weather Forecast

Almanac

Astronomy

Sep. 25, 2016 Rise Set
Actual Time
Civil Twilight
Nautical Twilight
Astronomical Twilight
Moon
Length of Visible Light
Length of Day
Tomorrow will be .
, % of the Moon is Illuminated

Today's Extremes

State Highs State Lows

Community

WunderPhotos

Upload Photos

1,941,554 photos uploaded!

WunderBlog® & News

Nearby

Air Quality

  Air Quality AQ Index Pollutant
Not available.

Snow Depth

Station Depth Elevation

Earthquake Activity

City Distance Mag. Time & Date
Minimum magnitude displayed is 2.5.

Coastal Water Temperatures

Place Temperature

Stations

Nearby Weather Stations

Station Location Temp. Windchill Dew Point Humidity Wind Precip. Elev Updated Type
                   

Watches & Warnings

There are currently no watches in effect.